sensor_id;sensor_type;location;lat;lon;timestamp;temperature;humidity
83102;SHT31;72973;51.784;4.660;2024-02-21T00:00:26;11.07;79.29
83102;SHT31;72973;51.784;4.660;2024-02-21T00:02:53;10.97;79.46
83102;SHT31;72973;51.784;4.660;2024-02-21T00:05:19;11.00;79.37
83102;SHT31;72973;51.784;4.660;2024-02-21T00:07:45;11.01;79.37
83102;SHT31;72973;51.784;4.660;2024-02-21T00:10:12;10.97;79.44
83102;SHT31;72973;51.784;4.660;2024-02-21T00:12:38;11.01;79.22
83102;SHT31;72973;51.784;4.660;2024-02-21T00:15:05;10.97;79.23
83102;SHT31;72973;51.784;4.660;2024-02-21T00:17:32;10.98;79.17
83102;SHT31;72973;51.784;4.660;2024-02-21T00:19:59;10.90;79.22
83102;SHT31;72973;51.784;4.660;2024-02-21T00:22:25;10.94;79.19
83102;SHT31;72973;51.784;4.660;2024-02-21T00:24:55;10.94;78.96
83102;SHT31;72973;51.784;4.660;2024-02-21T00:27:21;10.96;78.84
83102;SHT31;72973;51.784;4.660;2024-02-21T00:29:47;10.97;78.99
83102;SHT31;72973;51.784;4.660;2024-02-21T00:32:14;10.98;78.73
83102;SHT31;72973;51.784;4.660;2024-02-21T00:34:40;10.98;78.61
83102;SHT31;72973;51.784;4.660;2024-02-21T00:37:07;11.00;78.48
83102;SHT31;72973;51.784;4.660;2024-02-21T00:39:33;10.97;78.50
83102;SHT31;72973;51.784;4.660;2024-02-21T00:42:00;11.00;78.49
83102;SHT31;72973;51.784;4.660;2024-02-21T00:44:27;10.96;78.59
83102;SHT31;72973;51.784;4.660;2024-02-21T00:46:53;10.93;78.73
83102;SHT31;72973;51.784;4.660;2024-02-21T00:49:20;10.94;78.65
83102;SHT31;72973;51.784;4.660;2024-02-21T00:51:47;11.00;78.60
83102;SHT31;72973;51.784;4.660;2024-02-21T00:54:13;11.01;78.44
83102;SHT31;72973;51.784;4.660;2024-02-21T00:56:40;10.97;78.55
83102;SHT31;72973;51.784;4.660;2024-02-21T00:59:06;11.01;78.62
83102;SHT31;72973;51.784;4.660;2024-02-21T01:01:32;11.03;78.53
83102;SHT31;72973;51.784;4.660;2024-02-21T01:03:59;10.97;78.81
83102;SHT31;72973;51.784;4.660;2024-02-21T01:06:26;11.00;78.71
83102;SHT31;72973;51.784;4.660;2024-02-21T01:08:52;11.03;78.53
83102;SHT31;72973;51.784;4.660;2024-02-21T01:11:19;11.08;78.35
83102;SHT31;72973;51.784;4.660;2024-02-21T01:13:45;11.11;78.19
83102;SHT31;72973;51.784;4.660;2024-02-21T01:16:11;11.08;78.12
83102;SHT31;72973;51.784;4.660;2024-02-21T01:18:38;11.12;78.16
83102;SHT31;72973;51.784;4.660;2024-02-21T01:21:07;11.10;78.00
83102;SHT31;72973;51.784;4.660;2024-02-21T01:23:36;11.12;77.94
83102;SHT31;72973;51.784;4.660;2024-02-21T01:26:04;11.10;77.99
83102;SHT31;72973;51.784;4.660;2024-02-21T01:28:30;11.11;78.13
83102;SHT31;72973;51.784;4.660;2024-02-21T01:30:57;11.03;78.23
83102;SHT31;72973;51.784;4.660;2024-02-21T01:33:23;11.01;78.29
83102;SHT31;72973;51.784;4.660;2024-02-21T01:35:50;11.03;78.22
83102;SHT31;72973;51.784;4.660;2024-02-21T01:38:16;10.98;78.25
83102;SHT31;72973;51.784;4.660;2024-02-21T01:40:43;10.93;78.39
83102;SHT31;72973;51.784;4.660;2024-02-21T01:43:21;10.94;78.40
83102;SHT31;72973;51.784;4.660;2024-02-21T01:45:53;11.01;78.05
83102;SHT31;72973;51.784;4.660;2024-02-21T01:48:21;11.00;77.96
83102;SHT31;72973;51.784;4.660;2024-02-21T01:50:52;10.98;77.94
83102;SHT31;72973;51.784;4.660;2024-02-21T01:53:31;11.03;77.73
83102;SHT31;72973;51.784;4.660;2024-02-21T01:55:59;10.97;77.85
83102;SHT31;72973;51.784;4.660;2024-02-21T01:58:26;10.93;78.01
83102;SHT31;72973;51.784;4.660;2024-02-21T02:00:56;10.84;78.23
83102;SHT31;72973;51.784;4.660;2024-02-21T02:03:22;10.91;78.16
83102;SHT31;72973;51.784;4.660;2024-02-21T02:05:49;10.96;78.18
83102;SHT31;72973;51.784;4.660;2024-02-21T02:08:19;10.93;77.96
83102;SHT31;72973;51.784;4.660;2024-02-21T02:10:45;10.84;78.18
83102;SHT31;72973;51.784;4.660;2024-02-21T02:13:12;10.80;78.61
83102;SHT31;72973;51.784;4.660;2024-02-21T02:15:46;10.81;78.42
83102;SHT31;72973;51.784;4.660;2024-02-21T02:18:14;10.84;78.43
83102;SHT31;72973;51.784;4.660;2024-02-21T02:20:41;10.96;78.27
83102;SHT31;72973;51.784;4.660;2024-02-21T02:25:38;10.93;78.19
83102;SHT31;72973;51.784;4.660;2024-02-21T02:28:06;10.97;78.13
83102;SHT31;72973;51.784;4.660;2024-02-21T02:30:37;10.94;78.18
83102;SHT31;72973;51.784;4.660;2024-02-21T02:33:04;10.91;78.21
83102;SHT31;72973;51.784;4.660;2024-02-21T02:35:30;10.94;78.07
83102;SHT31;72973;51.784;4.660;2024-02-21T02:37:57;10.93;78.15
83102;SHT31;72973;51.784;4.660;2024-02-21T02:40:24;10.93;78.02
83102;SHT31;72973;51.784;4.660;2024-02-21T02:42:51;10.94;78.16
83102;SHT31;72973;51.784;4.660;2024-02-21T02:45:18;10.94;78.04
83102;SHT31;72973;51.784;4.660;2024-02-21T02:47:45;10.90;78.18
83102;SHT31;72973;51.784;4.660;2024-02-21T02:50:14;10.87;78.29
83102;SHT31;72973;51.784;4.660;2024-02-21T02:52:41;10.88;78.18
83102;SHT31;72973;51.784;4.660;2024-02-21T02:55:07;10.90;78.31
83102;SHT31;72973;51.784;4.660;2024-02-21T02:57:34;10.87;78.20
83102;SHT31;72973;51.784;4.660;2024-02-21T03:00:00;10.85;78.16
83102;SHT31;72973;51.784;4.660;2024-02-21T03:02:41;10.81;78.38
83102;SHT31;72973;51.784;4.660;2024-02-21T03:05:19;10.79;78.44
83102;SHT31;72973;51.784;4.660;2024-02-21T03:07:46;10.77;78.62
83102;SHT31;72973;51.784;4.660;2024-02-21T03:10:13;10.88;78.28
83102;SHT31;72973;51.784;4.660;2024-02-21T03:12:42;10.85;78.26
83102;SHT31;72973;51.784;4.660;2024-02-21T03:15:09;10.93;78.19
83102;SHT31;72973;51.784;4.660;2024-02-21T03:17:35;10.90;78.42
83102;SHT31;72973;51.784;4.660;2024-02-21T03:20:03;10.90;78.44
83102;SHT31;72973;51.784;4.660;2024-02-21T03:22:35;10.88;78.53
83102;SHT31;72973;51.784;4.660;2024-02-21T03:25:02;10.90;78.61
83102;SHT31;72973;51.784;4.660;2024-02-21T03:27:28;10.93;78.56
83102;SHT31;72973;51.784;4.660;2024-02-21T03:29:55;10.94;78.52
83102;SHT31;72973;51.784;4.660;2024-02-21T03:32:21;10.97;78.55
83102;SHT31;72973;51.784;4.660;2024-02-21T03:34:48;10.90;78.80
83102;SHT31;72973;51.784;4.660;2024-02-21T03:37:14;10.93;78.63
83102;SHT31;72973;51.784;4.660;2024-02-21T03:39:41;10.96;78.59
83102;SHT31;72973;51.784;4.660;2024-02-21T03:42:07;10.96;78.66
83102;SHT31;72973;51.784;4.660;2024-02-21T03:44:34;10.93;78.84
83102;SHT31;72973;51.784;4.660;2024-02-21T03:47:00;10.96;78.79
83102;SHT31;72973;51.784;4.660;2024-02-21T03:49:26;11.04;78.54
83102;SHT31;72973;51.784;4.660;2024-02-21T03:51:53;11.12;78.31
83102;SHT31;72973;51.784;4.660;2024-02-21T03:54:20;11.12;78.23
83102;SHT31;72973;51.784;4.660;2024-02-21T03:56:46;11.11;78.34
83102;SHT31;72973;51.784;4.660;2024-02-21T03:59:16;11.08;78.53
83102;SHT31;72973;51.784;4.660;2024-02-21T04:01:42;11.04;78.54
83102;SHT31;72973;51.784;4.660;2024-02-21T04:04:09;11.04;78.69
83102;SHT31;72973;51.784;4.660;2024-02-21T04:06:36;11.01;78.76
83102;SHT31;72973;51.784;4.660;2024-02-21T04:09:02;11.06;78.58
83102;SHT31;72973;51.784;4.660;2024-02-21T04:11:29;11.07;78.55
83102;SHT31;72973;51.784;4.660;2024-02-21T04:13:55;11.10;78.38
83102;SHT31;72973;51.784;4.660;2024-02-21T04:16:22;11.18;78.30
83102;SHT31;72973;51.784;4.660;2024-02-21T04:18:48;11.11;78.23
83102;SHT31;72973;51.784;4.660;2024-02-21T04:21:15;11.08;78.46
83102;SHT31;72973;51.784;4.660;2024-02-21T04:23:44;11.12;78.14
83102;SHT31;72973;51.784;4.660;2024-02-21T04:26:10;11.06;78.36
83102;SHT31;72973;51.784;4.660;2024-02-21T04:28:37;10.98;78.43
83102;SHT31;72973;51.784;4.660;2024-02-21T04:31:03;10.98;78.75
83102;SHT31;72973;51.784;4.660;2024-02-21T04:33:29;11.03;78.78
83102;SHT31;72973;51.784;4.660;2024-02-21T04:35:56;11.06;78.65
83102;SHT31;72973;51.784;4.660;2024-02-21T04:38:24;11.04;78.67
83102;SHT31;72973;51.784;4.660;2024-02-21T04:40:51;11.04;78.61
83102;SHT31;72973;51.784;4.660;2024-02-21T04:43:17;11.06;78.79
83102;SHT31;72973;51.784;4.660;2024-02-21T04:45:43;11.01;78.83
83102;SHT31;72973;51.784;4.660;2024-02-21T04:48:10;11.03;78.92
83102;SHT31;72973;51.784;4.660;2024-02-21T04:50:36;11.08;78.76
83102;SHT31;72973;51.784;4.660;2024-02-21T04:53:03;11.15;78.65
83102;SHT31;72973;51.784;4.660;2024-02-21T04:55:29;11.15;78.51
83102;SHT31;72973;51.784;4.660;2024-02-21T04:57:55;11.12;78.59
83102;SHT31;72973;51.784;4.660;2024-02-21T05:00:22;11.07;78.83
83102;SHT31;72973;51.784;4.660;2024-02-21T05:02:48;11.06;78.81
83102;SHT31;72973;51.784;4.660;2024-02-21T05:05:15;11.01;78.89
83102;SHT31;72973;51.784;4.660;2024-02-21T05:07:43;11.01;78.82
83102;SHT31;72973;51.784;4.660;2024-02-21T05:10:09;10.88;79.15
83102;SHT31;72973;51.784;4.660;2024-02-21T05:12:35;10.93;79.03
83102;SHT31;72973;51.784;4.660;2024-02-21T05:15:03;10.85;78.96
83102;SHT31;72973;51.784;4.660;2024-02-21T05:17:29;10.93;78.92
83102;SHT31;72973;51.784;4.660;2024-02-21T05:19:56;10.85;78.92
83102;SHT31;72973;51.784;4.660;2024-02-21T05:22:22;10.77;79.04
83102;SHT31;72973;51.784;4.660;2024-02-21T05:24:48;10.74;79.21
83102;SHT31;72973;51.784;4.660;2024-02-21T05:27:15;10.70;79.33
83102;SHT31;72973;51.784;4.660;2024-02-21T05:29:41;10.71;79.34
83102;SHT31;72973;51.784;4.660;2024-02-21T05:32:08;10.73;79.19
83102;SHT31;72973;51.784;4.660;2024-02-21T05:34:34;10.70;79.36
83102;SHT31;72973;51.784;4.660;2024-02-21T05:37:00;10.63;79.49
83102;SHT31;72973;51.784;4.660;2024-02-21T05:39:27;10.59;79.57
83102;SHT31;72973;51.784;4.660;2024-02-21T05:41:55;10.59;79.52
83102;SHT31;72973;51.784;4.660;2024-02-21T05:44:21;10.63;79.43
83102;SHT31;72973;51.784;4.660;2024-02-21T05:46:48;10.60;79.40
83102;SHT31;72973;51.784;4.660;2024-02-21T05:49:14;10.57;79.55
83102;SHT31;72973;51.784;4.660;2024-02-21T05:51:41;10.57;79.57
83102;SHT31;72973;51.784;4.660;2024-02-21T05:54:07;10.56;79.50
83102;SHT31;72973;51.784;4.660;2024-02-21T05:56:33;10.48;79.70
83102;SHT31;72973;51.784;4.660;2024-02-21T05:59:00;10.45;79.82
83102;SHT31;72973;51.784;4.660;2024-02-21T06:01:27;10.43;79.87
83102;SHT31;72973;51.784;4.660;2024-02-21T06:03:53;10.35;79.96
83102;SHT31;72973;51.784;4.660;2024-02-21T06:06:20;10.36;80.07
83102;SHT31;72973;51.784;4.660;2024-02-21T06:08:48;10.33;80.11
83102;SHT31;72973;51.784;4.660;2024-02-21T06:11:14;10.42;79.87
83102;SHT31;72973;51.784;4.660;2024-02-21T06:13:41;10.39;79.89
83102;SHT31;72973;51.784;4.660;2024-02-21T06:16:08;10.39;80.06
83102;SHT31;72973;51.784;4.660;2024-02-21T06:18:35;10.38;80.03
83102;SHT31;72973;51.784;4.660;2024-02-21T06:21:03;10.36;80.16
83102;SHT31;72973;51.784;4.660;2024-02-21T06:23:29;10.42;79.95
83102;SHT31;72973;51.784;4.660;2024-02-21T06:25:56;10.49;79.86
83102;SHT31;72973;51.784;4.660;2024-02-21T06:28:22;10.49;79.96
83102;SHT31;72973;51.784;4.660;2024-02-21T06:30:49;10.55;79.73
83102;SHT31;72973;51.784;4.660;2024-02-21T06:33:15;10.63;79.38
83102;SHT31;72973;51.784;4.660;2024-02-21T06:35:41;10.66;79.25
83102;SHT31;72973;51.784;4.660;2024-02-21T06:38:09;10.70;79.21
83102;SHT31;72973;51.784;4.660;2024-02-21T06:40:35;10.71;79.06
83102;SHT31;72973;51.784;4.660;2024-02-21T06:43:05;10.66;78.96
83102;SHT31;72973;51.784;4.660;2024-02-21T06:45:32;10.77;78.95
83102;SHT31;72973;51.784;4.660;2024-02-21T06:47:58;10.90;78.63
83102;SHT31;72973;51.784;4.660;2024-02-21T06:50:25;10.90;78.62
83102;SHT31;72973;51.784;4.660;2024-02-21T06:52:51;10.94;78.61
83102;SHT31;72973;51.784;4.660;2024-02-21T06:55:18;10.96;78.54
83102;SHT31;72973;51.784;4.660;2024-02-21T06:57:44;10.97;78.61
83102;SHT31;72973;51.784;4.660;2024-02-21T07:00:16;10.96;78.51
83102;SHT31;72973;51.784;4.660;2024-02-21T07:02:43;10.98;78.48
83102;SHT31;72973;51.784;4.660;2024-02-21T07:05:09;11.04;78.27
83102;SHT31;72973;51.784;4.660;2024-02-21T07:07:35;11.06;78.14
83102;SHT31;72973;51.784;4.660;2024-02-21T07:10:02;11.06;78.30
83102;SHT31;72973;51.784;4.660;2024-02-21T07:12:30;11.10;78.08
83102;SHT31;72973;51.784;4.660;2024-02-21T07:14:57;11.04;78.21
83102;SHT31;72973;51.784;4.660;2024-02-21T07:17:23;11.01;78.32
83102;SHT31;72973;51.784;4.660;2024-02-21T07:19:50;10.94;78.36
83102;SHT31;72973;51.784;4.660;2024-02-21T07:22:16;10.96;78.61
83102;SHT31;72973;51.784;4.660;2024-02-21T07:24:43;10.91;78.51
83102;SHT31;72973;51.784;4.660;2024-02-21T07:27:09;10.81;78.52
83102;SHT31;72973;51.784;4.660;2024-02-21T07:29:35;10.77;78.83
83102;SHT31;72973;51.784;4.660;2024-02-21T07:32:02;10.79;78.88
83102;SHT31;72973;51.784;4.660;2024-02-21T07:34:28;10.76;78.88
83102;SHT31;72973;51.784;4.660;2024-02-21T07:36:55;10.69;79.13
83102;SHT31;72973;51.784;4.660;2024-02-21T07:39:21;10.69;79.09
83102;SHT31;72973;51.784;4.660;2024-02-21T07:41:48;10.70;79.14
83102;SHT31;72973;51.784;4.660;2024-02-21T07:44:15;10.73;79.14
83102;SHT31;72973;51.784;4.660;2024-02-21T07:46:42;10.76;78.98
83102;SHT31;72973;51.784;4.660;2024-02-21T07:49:08;10.74;78.83
83102;SHT31;72973;51.784;4.660;2024-02-21T07:51:35;10.67;79.10
83102;SHT31;72973;51.784;4.660;2024-02-21T07:54:02;10.63;79.40
83102;SHT31;72973;51.784;4.660;2024-02-21T07:56:30;10.73;79.20
83102;SHT31;72973;51.784;4.660;2024-02-21T07:58:57;10.69;79.42
83102;SHT31;72973;51.784;4.660;2024-02-21T08:01:23;10.76;79.06
83102;SHT31;72973;51.784;4.660;2024-02-21T08:03:50;10.69;79.19
83102;SHT31;72973;51.784;4.660;2024-02-21T08:06:16;10.73;78.99
83102;SHT31;72973;51.784;4.660;2024-02-21T08:08:43;10.66;79.33
83102;SHT31;72973;51.784;4.660;2024-02-21T08:11:09;10.80;78.90
83102;SHT31;72973;51.784;4.660;2024-02-21T08:13:35;10.83;78.99
83102;SHT31;72973;51.784;4.660;2024-02-21T08:16:02;10.91;78.70
83102;SHT31;72973;51.784;4.660;2024-02-21T08:18:29;10.84;78.91
83102;SHT31;72973;51.784;4.660;2024-02-21T08:20:56;10.85;78.59
83102;SHT31;72973;51.784;4.660;2024-02-21T08:23:23;10.85;78.66
83102;SHT31;72973;51.784;4.660;2024-02-21T08:25:50;10.83;78.70
83102;SHT31;72973;51.784;4.660;2024-02-21T08:28:17;10.79;78.94
83102;SHT31;72973;51.784;4.660;2024-02-21T08:30:43;10.83;78.80
83102;SHT31;72973;51.784;4.660;2024-02-21T08:33:16;10.83;78.62
83102;SHT31;72973;51.784;4.660;2024-02-21T08:35:43;10.80;78.49
83102;SHT31;72973;51.784;4.660;2024-02-21T08:38:09;10.79;78.82
83102;SHT31;72973;51.784;4.660;2024-02-21T08:40:36;10.79;78.71
83102;SHT31;72973;51.784;4.660;2024-02-21T08:43:03;10.84;78.62
83102;SHT31;72973;51.784;4.660;2024-02-21T08:45:30;10.91;78.17
83102;SHT31;72973;51.784;4.660;2024-02-21T08:47:56;10.84;78.45
83102;SHT31;72973;51.784;4.660;2024-02-21T08:50:23;10.81;78.61
83102;SHT31;72973;51.784;4.660;2024-02-21T08:52:49;10.73;78.79
83102;SHT31;72973;51.784;4.660;2024-02-21T08:55:16;10.83;78.48
83102;SHT31;72973;51.784;4.660;2024-02-21T08:57:42;10.97;78.18
83102;SHT31;72973;51.784;4.660;2024-02-21T09:00:14;10.97;78.07
83102;SHT31;72973;51.784;4.660;2024-02-21T09:02:42;11.01;77.82
83102;SHT31;72973;51.784;4.660;2024-02-21T09:05:11;10.98;77.84
83102;SHT31;72973;51.784;4.660;2024-02-21T09:07:37;11.10;77.84
83102;SHT31;72973;51.784;4.660;2024-02-21T09:10:04;11.07;77.48
83102;SHT31;72973;51.784;4.660;2024-02-21T09:12:31;11.11;77.29
83102;SHT31;72973;51.784;4.660;2024-02-21T09:14:58;11.15;77.44
83102;SHT31;72973;51.784;4.660;2024-02-21T09:17:24;11.22;76.92
83102;SHT31;72973;51.784;4.660;2024-02-21T09:19:51;11.21;76.93
83102;SHT31;72973;51.784;4.660;2024-02-21T09:22:18;11.29;76.73
83102;SHT31;72973;51.784;4.660;2024-02-21T09:24:44;11.40;76.44
83102;SHT31;72973;51.784;4.660;2024-02-21T09:27:11;11.35;76.67
83102;SHT31;72973;51.784;4.660;2024-02-21T09:29:38;11.17;76.84
83102;SHT31;72973;51.784;4.660;2024-02-21T09:32:05;11.27;76.69
83102;SHT31;72973;51.784;4.660;2024-02-21T09:34:32;11.15;76.91
83102;SHT31;72973;51.784;4.660;2024-02-21T09:36:59;11.32;76.52
83102;SHT31;72973;51.784;4.660;2024-02-21T09:39:25;11.43;76.26
83102;SHT31;72973;51.784;4.660;2024-02-21T09:41:59;11.48;75.99
83102;SHT31;72973;51.784;4.660;2024-02-21T09:44:33;11.49;75.68
83102;SHT31;72973;51.784;4.660;2024-02-21T09:47:03;11.61;75.73
83102;SHT31;72973;51.784;4.660;2024-02-21T09:49:34;11.63;75.62
83102;SHT31;72973;51.784;4.660;2024-02-21T09:52:05;11.62;75.66
83102;SHT31;72973;51.784;4.660;2024-02-21T09:54:34;11.63;75.76
83102;SHT31;72973;51.784;4.660;2024-02-21T09:57:01;11.65;75.43
83102;SHT31;72973;51.784;4.660;2024-02-21T09:59:31;11.72;75.62
83102;SHT31;72973;51.784;4.660;2024-02-21T10:01:57;11.79;75.25
83102;SHT31;72973;51.784;4.660;2024-02-21T10:04:26;11.86;74.96
83102;SHT31;72973;51.784;4.660;2024-02-21T10:06:55;11.77;75.17
83102;SHT31;72973;51.784;4.660;2024-02-21T10:09:29;11.70;75.39
83102;SHT31;72973;51.784;4.660;2024-02-21T10:11:56;11.59;76.11
83102;SHT31;72973;51.784;4.660;2024-02-21T10:14:33;11.73;75.80
83102;SHT31;72973;51.784;4.660;2024-02-21T10:16:59;11.62;75.87
83102;SHT31;72973;51.784;4.660;2024-02-21T10:19:26;11.66;76.03
83102;SHT31;72973;51.784;4.660;2024-02-21T10:24:31;11.91;75.46
83102;SHT31;72973;51.784;4.660;2024-02-21T10:27:06;11.83;74.86
83102;SHT31;72973;51.784;4.660;2024-02-21T10:29:35;11.83;75.27
83102;SHT31;72973;51.784;4.660;2024-02-21T10:32:09;11.76;75.13
83102;SHT31;72973;51.784;4.660;2024-02-21T10:34:38;11.61;75.62
83102;SHT31;72973;51.784;4.660;2024-02-21T10:37:09;11.59;75.53
83102;SHT31;72973;51.784;4.660;2024-02-21T10:39:38;11.48;75.51
83102;SHT31;72973;51.784;4.660;2024-02-21T10:42:05;11.43;75.19
83102;SHT31;72973;51.784;4.660;2024-02-21T10:44:32;11.51;75.14
83102;SHT31;72973;51.784;4.660;2024-02-21T10:46:59;11.51;74.84
83102;SHT31;72973;51.784;4.660;2024-02-21T10:49:29;11.58;74.66
83102;SHT31;72973;51.784;4.660;2024-02-21T10:52:09;11.55;74.68
83102;SHT31;72973;51.784;4.660;2024-02-21T10:54:55;11.62;73.99
83102;SHT31;72973;51.784;4.660;2024-02-21T10:57:23;11.66;74.41
83102;SHT31;72973;51.784;4.660;2024-02-21T10:59:51;11.75;73.61
83102;SHT31;72973;51.784;4.660;2024-02-21T11:02:18;11.87;73.44
83102;SHT31;72973;51.784;4.660;2024-02-21T11:04:46;11.95;73.24
83102;SHT31;72973;51.784;4.660;2024-02-21T11:07:15;11.94;73.04
83102;SHT31;72973;51.784;4.660;2024-02-21T11:09:51;12.14;72.86
83102;SHT31;72973;51.784;4.660;2024-02-21T11:12:22;12.25;72.67
83102;SHT31;72973;51.784;4.660;2024-02-21T11:14:49;12.18;72.40
83102;SHT31;72973;51.784;4.660;2024-02-21T11:17:19;12.10;72.72
83102;SHT31;72973;51.784;4.660;2024-02-21T11:19:47;12.08;72.81
83102;SHT31;72973;51.784;4.660;2024-02-21T11:22:15;12.16;72.44
83102;SHT31;72973;51.784;4.660;2024-02-21T11:24:45;12.21;72.47
83102;SHT31;72973;51.784;4.660;2024-02-21T11:29:49;12.30;71.73
83102;SHT31;72973;51.784;4.660;2024-02-21T11:32:20;12.30;71.74
83102;SHT31;72973;51.784;4.660;2024-02-21T11:35:03;12.45;71.55
83102;SHT31;72973;51.784;4.660;2024-02-21T11:37:35;12.51;71.44
83102;SHT31;72973;51.784;4.660;2024-02-21T11:40:05;12.35;71.37
83102;SHT31;72973;51.784;4.660;2024-02-21T11:42:35;12.37;72.00
83102;SHT31;72973;51.784;4.660;2024-02-21T11:45:02;12.34;71.81
83102;SHT31;72973;51.784;4.660;2024-02-21T11:47:28;12.35;71.57
83102;SHT31;72973;51.784;4.660;2024-02-21T11:49:55;12.32;71.54
83102;SHT31;72973;51.784;4.660;2024-02-21T11:52:23;12.31;71.52
83102;SHT31;72973;51.784;4.660;2024-02-21T11:54:54;12.35;71.45
83102;SHT31;72973;51.784;4.660;2024-02-21T11:57:21;12.45;71.23
83102;SHT31;72973;51.784;4.660;2024-02-21T11:59:48;12.32;71.27
83102;SHT31;72973;51.784;4.660;2024-02-21T12:02:16;12.32;71.68
83102;SHT31;72973;51.784;4.660;2024-02-21T12:04:44;12.21;71.35
83102;SHT31;72973;51.784;4.660;2024-02-21T12:07:10;12.32;71.08
83102;SHT31;72973;51.784;4.660;2024-02-21T12:09:37;12.35;71.30
83102;SHT31;72973;51.784;4.660;2024-02-21T12:12:05;12.35;70.98
83102;SHT31;72973;51.784;4.660;2024-02-21T12:14:33;12.31;71.17
83102;SHT31;72973;51.784;4.660;2024-02-21T12:17:00;12.23;71.67
83102;SHT31;72973;51.784;4.660;2024-02-21T12:19:31;12.30;71.60
83102;SHT31;72973;51.784;4.660;2024-02-21T12:22:00;12.20;71.77
83102;SHT31;72973;51.784;4.660;2024-02-21T12:24:28;12.16;71.65
83102;SHT31;72973;51.784;4.660;2024-02-21T12:26:56;12.11;71.98
83102;SHT31;72973;51.784;4.660;2024-02-21T12:29:23;12.13;71.96
83102;SHT31;72973;51.784;4.660;2024-02-21T12:31:51;12.30;72.05
83102;SHT31;72973;51.784;4.660;2024-02-21T12:34:18;12.34;71.57
83102;SHT31;72973;51.784;4.660;2024-02-21T12:36:45;12.35;71.88
83102;SHT31;72973;51.784;4.660;2024-02-21T12:39:13;12.40;72.07
83102;SHT31;72973;51.784;4.660;2024-02-21T12:41:41;12.40;71.60
83102;SHT31;72973;51.784;4.660;2024-02-21T12:44:10;12.37;71.61
83102;SHT31;72973;51.784;4.660;2024-02-21T12:46:38;12.27;71.83
83102;SHT31;72973;51.784;4.660;2024-02-21T12:49:06;12.10;72.43
83102;SHT31;72973;51.784;4.660;2024-02-21T12:51:34;12.01;72.66
83102;SHT31;72973;51.784;4.660;2024-02-21T12:54:01;12.08;72.91
83102;SHT31;72973;51.784;4.660;2024-02-21T12:56:29;12.23;72.76
83102;SHT31;72973;51.784;4.660;2024-02-21T12:58:57;12.23;72.64
83102;SHT31;72973;51.784;4.660;2024-02-21T13:01:24;12.27;72.57
83102;SHT31;72973;51.784;4.660;2024-02-21T13:03:51;12.23;72.71
83102;SHT31;72973;51.784;4.660;2024-02-21T13:06:17;12.11;72.80
83102;SHT31;72973;51.784;4.660;2024-02-21T13:08:45;12.10;72.51
83102;SHT31;72973;51.784;4.660;2024-02-21T13:11:13;12.14;72.66
83102;SHT31;72973;51.784;4.660;2024-02-21T13:13:39;12.14;72.48
83102;SHT31;72973;51.784;4.660;2024-02-21T13:16:06;12.08;72.50
83102;SHT31;72973;51.784;4.660;2024-02-21T13:18:34;12.08;72.89
83102;SHT31;72973;51.784;4.660;2024-02-21T13:21:01;12.00;72.55
83102;SHT31;72973;51.784;4.660;2024-02-21T13:23:28;12.04;72.72
83102;SHT31;72973;51.784;4.660;2024-02-21T13:25:54;11.98;72.23
83102;SHT31;72973;51.784;4.660;2024-02-21T13:28:21;11.94;71.96
83102;SHT31;72973;51.784;4.660;2024-02-21T13:30:47;11.94;71.49
83102;SHT31;72973;51.784;4.660;2024-02-21T13:33:14;11.97;71.44
83102;SHT31;72973;51.784;4.660;2024-02-21T13:35:40;11.97;71.39
83102;SHT31;72973;51.784;4.660;2024-02-21T13:38:07;11.95;71.17
83102;SHT31;72973;51.784;4.660;2024-02-21T13:40:33;11.98;71.56
83102;SHT31;72973;51.784;4.660;2024-02-21T13:43:00;12.00;71.49
83102;SHT31;72973;51.784;4.660;2024-02-21T13:45:27;12.04;71.62
83102;SHT31;72973;51.784;4.660;2024-02-21T13:47:53;12.07;71.31
83102;SHT31;72973;51.784;4.660;2024-02-21T13:50:23;11.98;71.72
83102;SHT31;72973;51.784;4.660;2024-02-21T13:52:50;11.91;72.16
83102;SHT31;72973;51.784;4.660;2024-02-21T13:55:16;11.83;72.16
83102;SHT31;72973;51.784;4.660;2024-02-21T13:57:44;11.82;72.87
83102;SHT31;72973;51.784;4.660;2024-02-21T14:00:16;11.89;72.52
83102;SHT31;72973;51.784;4.660;2024-02-21T14:02:44;11.72;73.70
83102;SHT31;72973;51.784;4.660;2024-02-21T14:05:10;11.72;74.22
83102;SHT31;72973;51.784;4.660;2024-02-21T14:07:38;11.79;74.91
83102;SHT31;72973;51.784;4.660;2024-02-21T14:10:05;11.79;75.36
83102;SHT31;72973;51.784;4.660;2024-02-21T14:12:31;11.75;75.66
83102;SHT31;72973;51.784;4.660;2024-02-21T14:14:58;11.73;76.24
83102;SHT31;72973;51.784;4.660;2024-02-21T14:17:24;11.61;76.78
83102;SHT31;72973;51.784;4.660;2024-02-21T14:19:51;11.45;76.98
83102;SHT31;72973;51.784;4.660;2024-02-21T14:22:17;11.35;77.66
83102;SHT31;72973;51.784;4.660;2024-02-21T14:24:45;11.28;78.19
83102;SHT31;72973;51.784;4.660;2024-02-21T14:27:11;11.21;78.78
83102;SHT31;72973;51.784;4.660;2024-02-21T14:29:38;11.03;79.39
83102;SHT31;72973;51.784;4.660;2024-02-21T14:32:05;10.91;80.37
83102;SHT31;72973;51.784;4.660;2024-02-21T14:34:33;10.88;80.28
83102;SHT31;72973;51.784;4.660;2024-02-21T14:36:59;10.83;81.30
83102;SHT31;72973;51.784;4.660;2024-02-21T14:39:26;10.85;81.77
83102;SHT31;72973;51.784;4.660;2024-02-21T14:41:53;10.76;81.86
83102;SHT31;72973;51.784;4.660;2024-02-21T14:44:20;10.69;82.09
83102;SHT31;72973;51.784;4.660;2024-02-21T14:46:46;10.73;82.40
83102;SHT31;72973;51.784;4.660;2024-02-21T14:49:12;10.73;82.25
83102;SHT31;72973;51.784;4.660;2024-02-21T14:51:39;10.73;82.01
83102;SHT31;72973;51.784;4.660;2024-02-21T14:54:05;10.74;81.79
83102;SHT31;72973;51.784;4.660;2024-02-21T14:56:32;10.79;82.59
83102;SHT31;72973;51.784;4.660;2024-02-21T14:58:58;10.80;82.25
83102;SHT31;72973;51.784;4.660;2024-02-21T15:01:24;10.81;82.52
83102;SHT31;72973;51.784;4.660;2024-02-21T15:03:51;10.79;83.06
83102;SHT31;72973;51.784;4.660;2024-02-21T15:06:17;10.67;82.81
83102;SHT31;72973;51.784;4.660;2024-02-21T15:08:44;10.48;83.33
83102;SHT31;72973;51.784;4.660;2024-02-21T15:11:10;10.48;83.47
83102;SHT31;72973;51.784;4.660;2024-02-21T15:13:37;10.56;83.82
83102;SHT31;72973;51.784;4.660;2024-02-21T15:16:03;10.50;84.07
83102;SHT31;72973;51.784;4.660;2024-02-21T15:18:31;10.60;84.03
83102;SHT31;72973;51.784;4.660;2024-02-21T15:21:04;10.53;83.91
83102;SHT31;72973;51.784;4.660;2024-02-21T15:23:30;10.48;84.01
83102;SHT31;72973;51.784;4.660;2024-02-21T15:25:57;10.45;84.18
83102;SHT31;72973;51.784;4.660;2024-02-21T15:28:23;10.46;84.72
83102;SHT31;72973;51.784;4.660;2024-02-21T15:30:50;10.45;84.62
83102;SHT31;72973;51.784;4.660;2024-02-21T15:33:16;10.38;85.02
83102;SHT31;72973;51.784;4.660;2024-02-21T15:35:43;10.36;84.86
83102;SHT31;72973;51.784;4.660;2024-02-21T15:38:09;10.41;84.95